Time;durP1;ratioP1;P1;durP2;ratioP2;P2;SDS_P1;SDS_P2;PMS_P1;PMS_P2;Temp;Humidity;BMP_temperature;BMP_pressure;BME280_temperature;BME280_humidity;BME280_pressure;Samples;Min_cycle;Max_cycle;Signal;HPM_P1;HPM_P2
2022/07/11 00:02:02;;;;;;;5.63;2.07;;;10.80;99.90;;;;;;5036678;28;20297;-81
2022/07/11 00:04:30;;;;;;;5.00;1.80;;;10.80;99.90;;;;;;5028141;28;20225;-80
2022/07/11 00:06:58;;;;;;;5.03;1.93;;;10.80;99.90;;;;;;5034485;28;20732;-81
2022/07/11 00:09:25;;;;;;;4.40;2.03;;;10.70;99.90;;;;;;5024509;23;20233;-85
2022/07/11 00:11:51;;;;;;;6.50;1.80;;;10.70;99.90;;;;;;5004189;28;20225;-82
2022/07/11 00:14:19;;;;;;;6.00;1.60;;;10.70;99.90;;;;;;4985777;28;20340;-83
2022/07/11 00:16:46;;;;;;;5.37;1.87;;;10.70;99.90;;;;;;4979998;28;20315;-84
2022/07/11 00:19:13;;;;;;;3.53;1.67;;;10.60;99.90;;;;;;4997412;28;20232;-83
2022/07/11 00:21:41;;;;;;;4.23;1.97;;;10.60;99.90;;;;;;5003780;28;20732;-83
2022/07/11 00:24:08;;;;;;;5.03;1.60;;;10.60;99.90;;;;;;5005355;28;20410;-83
2022/07/11 00:26:34;;;;;;;4.30;1.93;;;10.60;99.90;;;;;;5001781;28;20221;-83
2022/07/11 00:29:01;;;;;;;3.87;2.00;;;10.50;99.90;;;;;;4980780;28;20237;-83
2022/07/11 00:31:28;;;;;;;6.13;1.90;;;10.50;99.90;;;;;;4980647;28;20232;-83
2022/07/11 00:33:55;;;;;;;4.40;2.17;;;10.50;99.90;;;;;;4997876;28;20226;-82
2022/07/11 00:36:22;;;;;;;6.60;1.87;;;10.40;99.90;;;;;;5003557;28;20705;-83
2022/07/11 00:38:50;;;;;;;5.27;1.90;;;10.40;99.90;;;;;;4986133;28;20701;-84
2022/07/11 00:41:18;;;;;;;4.77;1.83;;;10.40;99.90;;;;;;4984407;28;20308;-85
2022/07/11 00:43:52;;;;;;;4.37;1.87;;;10.40;99.90;;;;;;5007491;28;20283;-83
2022/07/11 00:46:19;;;;;;;5.50;1.80;;;10.30;99.90;;;;;;4989830;28;20284;-84
2022/07/11 00:48:45;;;;;;;4.90;1.77;;;10.30;99.90;;;;;;5008808;28;20235;-83
2022/07/11 00:51:13;;;;;;;4.17;1.97;;;10.30;99.90;;;;;;4989194;28;20241;-85
2022/07/11 00:53:42;;;;;;;4.07;1.60;;;10.20;99.90;;;;;;5008371;28;20228;-83
2022/07/11 00:56:10;;;;;;;2.70;1.63;;;10.20;99.90;;;;;;4993933;28;20228;-83
2022/07/11 00:58:37;;;;;;;5.23;1.63;;;10.20;99.90;;;;;;5000966;28;20571;-84
2022/07/11 01:01:05;;;;;;;5.47;1.87;;;10.20;99.90;;;;;;4994695;28;20952;-84
2022/07/11 01:03:34;;;;;;;4.67;1.80;;;10.20;99.90;;;;;;4981381;28;20232;-84
2022/07/11 01:06:01;;;;;;;4.23;1.60;;;10.10;99.90;;;;;;4990026;28;20225;-84
2022/07/11 01:08:31;;;;;;;4.43;1.83;;;10.10;99.90;;;;;;4991110;28;20323;-83
2022/07/11 01:11:00;;;;;;;4.77;1.90;;;10.10;99.90;;;;;;4985967;28;20591;-84
2022/07/11 01:13:28;;;;;;;5.13;1.57;;;10.00;99.90;;;;;;4990641;28;20236;-84
2022/07/11 01:16:08;;;;;;;4.43;1.47;;;10.00;99.90;;;;;;4995054;28;20287;-83
2022/07/11 01:18:34;;;;;;;3.63;1.30;;;10.00;99.90;;;;;;4986564;28;20663;-84
2022/07/11 01:21:01;;;;;;;4.00;1.40;;;10.00;99.90;;;;;;4990483;28;20576;-84
2022/07/11 01:23:29;;;;;;;3.70;1.73;;;10.00;99.90;;;;;;5004932;28;20236;-84
2022/07/11 01:25:56;;;;;;;2.90;1.20;;;10.00;99.90;;;;;;4984774;28;20319;-84
2022/07/11 01:28:23;;;;;;;3.23;1.60;;;10.00;99.90;;;;;;5000899;28;20226;-84
2022/07/11 01:30:49;;;;;;;4.03;1.77;;;10.00;99.90;;;;;;4994366;28;20225;-85
2022/07/11 01:33:16;;;;;;;4.97;1.80;;;10.00;99.90;;;;;;4986738;28;20328;-85
2022/07/11 01:35:43;;;;;;;5.27;1.70;;;10.10;99.90;;;;;;4985454;28;20226;-84
2022/07/11 01:38:09;;;;;;;4.67;1.77;;;10.10;99.90;;;;;;4986037;28;20232;-84
2022/07/11 01:40:37;;;;;;;6.40;1.60;;;10.10;99.90;;;;;;5002878;28;20254;-84
2022/07/11 01:43:04;;;;;;;4.13;1.77;;;10.10;99.90;;;;;;4996736;28;20240;-84
2022/07/11 01:45:31;;;;;;;4.23;1.90;;;10.10;99.90;;;;;;4976063;28;20233;-85
2022/07/11 01:47:57;;;;;;;5.00;1.90;;;10.10;99.90;;;;;;5000844;28;20228;-85
2022/07/11 01:50:24;;;;;;;3.13;1.50;;;10.10;99.90;;;;;;4981895;28;20238;-85
2022/07/11 01:52:51;;;;;;;4.17;1.90;;;10.00;99.90;;;;;;4994008;28;21043;-85
2022/07/11 01:55:18;;;;;;;4.47;1.70;;;10.00;99.90;;;;;;4987514;28;20220;-85
2022/07/11 01:57:46;;;;;;;4.30;1.43;;;10.00;99.90;;;;;;5004489;28;20217;-84
2022/07/11 02:00:13;;;;;;;4.53;1.60;;;9.90;99.90;;;;;;4981494;28;20229;-84
2022/07/11 02:02:40;;;;;;;7.90;2.07;;;9.90;99.90;;;;;;5002341;28;20307;-83
2022/07/11 02:05:07;;;;;;;5.77;1.83;;;9.90;99.90;;;;;;5004900;28;20224;-83
2022/07/11 02:10:17;;;;;;;3.10;1.50;;;9.80;99.90;;;;;;5004783;28;20311;-84
2022/07/11 02:12:45;;;;;;;4.23;1.90;;;9.80;99.90;;;;;;5006741;28;20232;-83
2022/07/11 02:15:13;;;;;;;4.83;1.57;;;9.80;99.90;;;;;;4988961;28;20311;-84
2022/07/11 02:17:40;;;;;;;3.17;1.50;;;9.80;99.90;;;;;;4990942;28;20228;-84
2022/07/11 02:20:08;;;;;;;4.80;1.33;;;9.80;99.90;;;;;;4999540;28;20228;-84
2022/07/11 02:22:35;;;;;;;3.83;1.53;;;9.70;99.90;;;;;;4986831;28;20228;-83
2022/07/11 02:25:01;;;;;;;3.57;1.60;;;9.70;99.90;;;;;;4991444;28;20229;-83
2022/07/11 02:27:28;;;;;;;4.37;1.90;;;9.70;99.90;;;;;;4989887;28;20276;-83
2022/07/11 02:29:56;;;;;;;3.77;1.73;;;9.70;99.90;;;;;;4983058;28;20238;-83
2022/07/11 02:32:23;;;;;;;6.47;2.03;;;9.70;99.90;;;;;;5001939;28;21196;-83
2022/07/11 02:34:49;;;;;;;3.63;1.70;;;9.80;99.90;;;;;;4985209;28;20245;-84
2022/07/11 02:37:16;;;;;;;5.67;1.70;;;9.80;99.90;;;;;;4988034;28;20221;-85
2022/07/11 02:39:43;;;;;;;3.57;1.83;;;9.80;99.90;;;;;;4987468;28;20230;-85
2022/07/11 02:42:10;;;;;;;5.97;1.57;;;9.80;99.90;;;;;;4990128;28;20221;-84
2022/07/11 02:44:37;;;;;;;3.50;1.67;;;9.80;99.90;;;;;;4988239;28;20236;-85
2022/07/11 02:47:05;;;;;;;3.13;1.50;;;9.80;99.90;;;;;;4985347;28;20233;-84
2022/07/11 02:49:32;;;;;;;5.43;1.60;;;9.80;99.90;;;;;;4987676;28;20236;-84
2022/07/11 02:51:59;;;;;;;3.83;1.40;;;9.80;99.90;;;;;;4990135;28;20232;-82
2022/07/11 02:54:26;;;;;;;4.97;1.43;;;9.80;99.90;;;;;;5005228;28;20701;-83
2022/07/11 02:56:52;;;;;;;3.57;1.37;;;9.70;99.90;;;;;;5009439;28;20224;-84
2022/07/11 02:59:19;;;;;;;5.83;1.47;;;9.70;99.90;;;;;;4993979;28;20712;-83
2022/07/11 03:01:46;;;;;;;6.03;1.97;;;9.70;99.90;;;;;;4994922;28;20228;-83
2022/07/11 03:04:14;;;;;;;5.10;2.00;;;9.70;99.90;;;;;;5000177;28;21804;-84
2022/07/11 03:06:41;;;;;;;2.77;1.50;;;9.70;99.90;;;;;;4989850;28;20259;-82
2022/07/11 03:09:09;;;;;;;4.73;1.63;;;9.70;99.90;;;;;;4984860;28;20917;-87
2022/07/11 03:11:36;;;;;;;3.27;1.83;;;9.70;99.90;;;;;;5007678;28;20232;-83
2022/07/11 03:14:03;;;;;;;4.43;1.70;;;9.60;99.90;;;;;;4992451;28;20224;-85
2022/07/11 03:16:30;;;;;;;4.20;1.40;;;9.60;99.90;;;;;;4993355;28;20232;-83
2022/07/11 03:18:58;;;;;;;3.43;1.60;;;9.60;99.90;;;;;;4989402;28;20229;-82
2022/07/11 03:21:26;;;;;;;4.30;1.90;;;9.60;99.90;;;;;;5001017;28;20225;-82
2022/07/11 03:23:53;;;;;;;6.50;2.27;;;9.60;99.90;;;;;;5005665;28;20320;-83
2022/07/11 03:26:19;;;;;;;3.33;1.63;;;9.60;99.90;;;;;;4986552;28;20697;-83
2022/07/11 03:28:46;;;;;;;5.53;1.80;;;9.70;99.90;;;;;;4984842;28;20236;-85
2022/07/11 03:31:13;;;;;;;4.50;1.60;;;9.70;99.90;;;;;;4986262;28;20228;-83
2022/07/11 03:33:39;;;;;;;5.93;1.80;;;9.80;99.90;;;;;;5007041;28;20337;-85
2022/07/11 03:36:07;;;;;;;4.63;1.90;;;9.90;99.90;;;;;;5006174;28;20292;-85
2022/07/11 03:38:35;;;;;;;2.77;1.73;;;9.90;99.90;;;;;;4987478;28;20244;-83
2022/07/11 03:41:02;;;;;;;4.63;1.90;;;10.00;99.90;;;;;;4997881;28;22093;-84
2022/07/11 03:43:28;;;;;;;5.63;1.70;;;10.00;99.90;;;;;;5004731;28;20984;-85
2022/07/11 03:45:55;;;;;;;5.00;1.70;;;10.00;99.90;;;;;;4987248;28;20229;-84
2022/07/11 03:48:22;;;;;;;5.00;1.50;;;10.00;99.90;;;;;;4976979;28;20902;-84
2022/07/11 03:50:49;;;;;;;3.77;1.73;;;10.10;99.90;;;;;;5000627;28;20739;-83
2022/07/11 03:53:16;;;;;;;2.63;1.50;;;10.10;99.90;;;;;;4985199;28;20233;-83
2022/07/11 03:55:44;;;;;;;6.20;1.90;;;10.10;99.90;;;;;;4991652;28;20593;-82
2022/07/11 03:58:11;;;;;;;3.40;1.60;;;10.20;99.90;;;;;;4991705;28;20239;-82
2022/07/11 04:00:37;;;;;;;4.07;1.80;;;10.20;99.90;;;;;;5008132;28;20316;-81
2022/07/11 04:03:04;;;;;;;3.83;1.40;;;10.20;99.90;;;;;;5006387;28;20297;-82
2022/07/11 04:05:31;;;;;;;3.20;1.43;;;10.30;99.90;;;;;;4993707;28;20264;-83
2022/07/11 04:07:58;;;;;;;5.60;1.90;;;10.30;99.90;;;;;;4995261;28;20252;-81
2022/07/11 04:10:25;;;;;;;7.10;2.07;;;10.30;99.90;;;;;;4993595;28;20224;-80
2022/07/11 04:12:53;;;;;;;4.17;1.67;;;10.30;99.90;;;;;;5010475;28;20237;-81
2022/07/11 04:15:20;;;;;;;4.57;2.20;;;10.30;99.90;;;;;;5011965;28;20654;-81
2022/07/11 04:17:46;;;;;;;4.13;1.90;;;10.40;99.90;;;;;;4991540;28;20229;-82
2022/07/11 04:20:13;;;;;;;2.63;1.60;;;10.40;99.90;;;;;;5010884;28;20223;-82
2022/07/11 04:22:40;;;;;;;4.23;1.80;;;10.40;99.90;;;;;;5010759;28;20841;-82
2022/07/11 04:25:07;;;;;;;3.53;1.67;;;10.40;99.90;;;;;;5015084;28;20743;-84
2022/07/11 04:27:34;;;;;;;4.17;1.80;;;10.40;99.90;;;;;;5006385;28;20230;-83
2022/07/11 04:30:02;;;;;;;6.53;2.00;;;10.30;99.90;;;;;;4994682;28;20225;-82
2022/07/11 04:32:29;;;;;;;4.23;2.00;;;10.40;99.90;;;;;;4987655;28;20317;-83
2022/07/11 04:34:55;;;;;;;7.17;2.20;;;10.40;99.90;;;;;;5012413;28;20308;-80
2022/07/11 04:37:22;;;;;;;7.60;2.13;;;10.40;99.90;;;;;;5002580;28;20228;-83
2022/07/11 04:39:49;;;;;;;5.13;2.20;;;10.40;99.90;;;;;;5009200;28;20225;-82
2022/07/11 04:42:15;;;;;;;7.27;2.30;;;10.40;99.90;;;;;;5009387;28;20219;-80
2022/07/11 04:44:42;;;;;;;6.00;1.80;;;10.40;99.90;;;;;;4992658;28;20233;-82
2022/07/11 04:47:10;;;;;;;5.90;2.03;;;10.50;99.90;;;;;;4991465;28;20312;-83
2022/07/11 04:49:37;;;;;;;5.43;2.30;;;10.50;99.90;;;;;;5010142;28;20247;-83
2022/07/11 04:52:05;;;;;;;5.87;2.00;;;10.50;99.90;;;;;;5009399;28;20229;-83
2022/07/11 04:54:31;;;;;;;3.70;1.50;;;10.60;99.90;;;;;;4994992;28;20597;-83
2022/07/11 04:56:58;;;;;;;5.93;2.07;;;10.60;99.90;;;;;;4995011;28;20227;-83
2022/07/11 04:59:26;;;;;;;4.57;1.90;;;10.60;99.90;;;;;;4996899;28;20238;-83
2022/07/11 05:01:52;;;;;;;6.53;1.93;;;10.70;99.90;;;;;;5011028;28;20308;-83
2022/07/11 05:04:21;;;;;;;7.27;1.90;;;10.70;99.90;;;;;;5014524;28;20305;-88
2022/07/11 05:06:47;;;;;;;9.20;2.37;;;10.80;99.90;;;;;;5013460;28;20251;-85
2022/07/11 05:09:14;;;;;;;4.83;2.07;;;10.90;99.90;;;;;;4996273;28;20281;-83
2022/07/11 05:11:41;;;;;;;4.57;1.60;;;10.90;99.90;;;;;;5012631;28;20222;-83
2022/07/11 05:14:07;;;;;;;6.37;1.97;;;11.00;99.90;;;;;;4988034;28;20304;-83
2022/07/11 05:16:34;;;;;;;6.83;1.90;;;11.10;99.90;;;;;;4987439;28;20687;-82
2022/07/11 05:19:01;;;;;;;5.03;1.80;;;11.10;99.90;;;;;;5002948;28;20352;-84
2022/07/11 05:21:29;;;;;;;5.20;2.00;;;11.20;99.90;;;;;;5007627;28;20241;-81
2022/07/11 05:23:56;;;;;;;7.53;1.50;;;11.30;99.90;;;;;;5005645;28;20282;-79
2022/07/11 05:26:22;;;;;;;7.37;1.97;;;11.30;99.90;;;;;;5005993;28;20214;-81
2022/07/11 05:28:49;;;;;;;11.10;2.30;;;11.40;99.90;;;;;;5006270;28;20233;-84
2022/07/11 05:31:16;;;;;;;5.27;1.53;;;11.40;99.90;;;;;;5008655;28;20225;-81
2022/07/11 05:33:43;;;;;;;4.87;2.00;;;11.50;99.90;;;;;;4989414;28;20230;-81
2022/07/11 05:36:09;;;;;;;4.97;1.60;;;11.60;99.90;;;;;;4986810;28;20233;-82
2022/07/11 05:38:37;;;;;;;6.80;2.00;;;11.60;99.90;;;;;;4987825;28;20254;-81
2022/07/11 05:41:04;;;;;;;6.17;1.70;;;11.70;99.90;;;;;;5006584;28;20656;-82
2022/07/11 05:43:31;;;;;;;3.93;1.83;;;11.70;99.90;;;;;;5006407;28;20228;-83
2022/07/11 05:45:58;;;;;;;5.50;1.67;;;11.80;99.90;;;;;;5011094;28;20239;-82
2022/07/11 05:48:24;;;;;;;4.60;1.90;;;11.90;99.90;;;;;;5000109;28;20243;-82
2022/07/11 05:50:51;;;;;;;6.13;2.03;;;12.00;99.90;;;;;;5007138;28;20231;-82
2022/07/11 05:53:17;;;;;;;6.10;2.30;;;12.10;99.90;;;;;;4974449;28;20952;-84
2022/07/11 05:55:45;;;;;;;5.30;1.63;;;12.10;99.90;;;;;;5011321;28;20221;-83
2022/07/11 05:58:12;;;;;;;6.67;1.83;;;12.20;99.90;;;;;;4986574;28;20240;-82
2022/07/11 06:00:39;;;;;;;6.40;2.07;;;12.30;99.90;;;;;;4984233;28;20252;-83
2022/07/11 06:03:05;;;;;;;4.43;1.60;;;12.40;99.90;;;;;;5006716;28;20232;-81
2022/07/11 06:05:32;;;;;;;6.50;1.73;;;12.40;99.90;;;;;;5012201;28;20238;-83
2022/07/11 06:10:43;;;;;;;3.17;1.67;;;12.50;99.90;;;;;;5003219;23;20231;-91
2022/07/11 06:13:11;;;;;;;8.93;2.50;;;12.50;99.90;;;;;;5002597;28;20211;-91
2022/07/11 06:15:38;;;;;;;4.23;1.30;;;12.60;99.90;;;;;;5006625;28;20237;-91
2022/07/11 06:18:05;;;;;;;4.70;1.37;;;12.60;99.90;;;;;;5009730;28;20223;-91
2022/07/11 06:20:32;;;;;;;7.97;1.57;;;12.60;99.90;;;;;;5023810;28;20237;-91
2022/07/11 06:22:58;;;;;;;6.00;1.47;;;12.80;99.90;;;;;;4998800;28;20252;-90
2022/07/11 06:25:25;;;;;;;5.53;1.60;;;12.70;99.90;;;;;;5033953;28;20268;-91
2022/07/11 06:27:52;;;;;;;4.30;1.53;;;12.80;99.90;;;;;;5008671;28;20243;-92
2022/07/11 06:30:20;;;;;;;5.20;1.10;;;12.90;99.90;;;;;;5008820;28;20291;-91
2022/07/11 06:32:47;;;;;;;3.70;1.20;;;13.00;99.90;;;;;;5008451;28;20211;-90
2022/07/11 06:35:13;;;;;;;4.30;1.37;;;13.10;99.90;;;;;;5008716;28;20211;-91
2022/07/11 06:37:40;;;;;;;4.37;1.27;;;13.20;99.90;;;;;;5010384;28;20213;-91
2022/07/11 06:40:10;;;;;;;2.53;1.00;;;13.30;99.90;;;;;;5004800;28;20232;-91
2022/07/11 06:42:37;;;;;;;3.03;1.00;;;13.50;99.90;;;;;;4989125;28;20213;-90
2022/07/11 06:45:08;;;;;;;3.87;1.27;;;13.80;99.90;;;;;;5007762;28;20220;-91
2022/07/11 06:47:36;;;;;;;4.37;1.40;;;14.10;99.90;;;;;;5009141;28;20270;-91
2022/07/11 06:50:03;;;;;;;4.37;1.10;;;14.30;99.90;;;;;;5006079;28;20225;-91
2022/07/11 06:52:30;;;;;;;5.27;1.47;;;14.50;99.90;;;;;;5011401;28;20228;-91
2022/07/11 06:54:58;;;;;;;5.30;1.20;;;14.60;99.90;;;;;;5012744;28;20218;-91
2022/07/11 06:57:24;;;;;;;3.97;1.27;;;14.80;99.90;;;;;;5013049;28;20236;-90
2022/07/11 06:59:51;;;;;;;4.70;1.30;;;14.80;99.90;;;;;;5012315;28;20279;-91
2022/07/11 07:02:18;;;;;;;4.57;1.50;;;14.80;99.90;;;;;;5007761;28;20213;-91
2022/07/11 07:04:46;;;;;;;2.33;1.10;;;14.90;99.90;;;;;;5012276;28;20224;-90
2022/07/11 07:07:14;;;;;;;2.93;1.00;;;15.00;99.90;;;;;;5008425;28;20234;-91
2022/07/11 07:09:41;;;;;;;3.87;1.20;;;15.20;99.90;;;;;;5011100;28;20214;-91
2022/07/11 07:12:08;;;;;;;3.67;0.80;;;15.60;99.90;;;;;;5010476;28;20274;-91
2022/07/11 07:14:34;;;;;;;3.20;1.10;;;16.20;99.90;;;;;;5012129;28;20225;-91
2022/07/11 07:17:01;;;;;;;4.68;0.90;;;16.80;99.90;;;;;;5013971;28;20206;-91
2022/07/11 07:19:28;;;;;;;3.33;0.70;;;17.50;99.90;;;;;;5010383;28;20286;-91
2022/07/11 07:21:56;;;;;;;3.05;0.95;;;18.30;99.90;;;;;;5011944;28;20230;-90
2022/07/11 07:24:22;;;;;;;3.25;1.08;;;19.00;99.90;;;;;;5010893;28;20229;-91
2022/07/11 07:26:49;;;;;;;2.78;0.90;;;19.70;99.20;;;;;;5016973;28;20230;-90
2022/07/11 07:29:16;;;;;;;3.00;0.70;;;20.40;97.90;;;;;;5010589;28;20404;-91
2022/07/11 07:31:43;;;;;;;2.35;0.85;;;21.00;97.00;;;;;;5009108;28;20226;-92
2022/07/11 07:34:10;;;;;;;2.42;0.88;;;21.50;96.20;;;;;;5013923;28;20210;-91
2022/07/11 07:36:37;;;;;;;3.20;0.73;;;21.90;95.00;;;;;;5012664;28;20230;-92
2022/07/11 07:39:05;;;;;;;3.53;0.80;;;22.20;93.50;;;;;;5013612;28;20210;-91
2022/07/11 07:41:32;;;;;;;2.50;0.80;;;22.40;92.90;;;;;;5008820;28;20214;-91
2022/07/11 07:43:59;;;;;;;4.03;0.95;;;22.50;93.00;;;;;;5011292;28;20383;-90
2022/07/11 07:46:25;;;;;;;4.40;1.33;;;22.80;92.00;;;;;;5005661;28;20235;-90
2022/07/11 07:48:52;;;;;;;2.17;0.70;;;23.10;92.00;;;;;;5024726;28;20290;-92
2022/07/11 07:51:19;;;;;;;2.13;0.73;;;23.30;91.10;;;;;;5011216;28;20210;-91
2022/07/11 07:53:46;;;;;;;2.63;0.68;;;23.50;90.60;;;;;;5011072;28;20209;-92
2022/07/11 07:56:14;;;;;;;3.67;0.73;;;23.60;88.00;;;;;;5010923;28;20220;-92
2022/07/11 07:58:41;;;;;;;1.67;0.73;;;23.80;89.10;;;;;;5010935;28;20226;-91
2022/07/11 08:03:55;;;;;;;2.38;0.70;;;23.80;87.60;;;;;;5000460;28;20233;-91
2022/07/11 08:06:22;;;;;;;2.67;0.70;;;23.90;87.30;;;;;;5007976;28;20230;-92
2022/07/11 08:08:49;;;;;;;1.30;0.68;;;24.00;86.90;;;;;;5011026;28;20226;-92
2022/07/11 08:11:20;;;;;;;2.25;0.70;;;24.30;86.00;;;;;;5018267;28;20217;-90
2022/07/11 08:13:48;;;;;;;2.15;0.60;;;24.50;85.60;;;;;;5010956;28;20225;-91
2022/07/11 08:16:15;;;;;;;2.33;0.70;;;25.00;85.90;;;;;;5012150;28;20940;-91
2022/07/11 08:18:42;;;;;;;1.77;0.60;;;25.40;85.10;;;;;;5009650;28;20286;-91
2022/07/11 08:21:09;;;;;;;0.90;0.60;;;25.90;83.20;;;;;;5010974;28;20230;-91
2022/07/11 08:23:36;;;;;;;2.80;1.23;;;26.30;82.30;;;;;;5001672;28;20245;-91
2022/07/11 08:26:02;;;;;;;1.92;0.80;;;26.60;80.10;;;;;;5023068;28;20226;-92
2022/07/11 08:28:31;;;;;;;2.50;0.80;;;26.80;78.70;;;;;;5005776;28;20237;-91
2022/07/11 08:30:57;;;;;;;2.95;0.63;;;26.90;75.60;;;;;;4999380;28;20254;-92
2022/07/11 08:33:24;;;;;;;0.90;0.60;;;26.90;75.80;;;;;;5011137;28;20234;-91
2022/07/11 08:35:51;;;;;;;1.80;0.77;;;27.00;75.80;;;;;;5009682;28;20226;-91
2022/07/11 08:38:18;;;;;;;2.38;1.27;;;27.20;74.50;;;;;;5029655;28;20287;-91
2022/07/11 08:40:44;;;;;;;2.72;0.88;;;27.20;72.90;;;;;;5009733;28;20367;-91
2022/07/11 08:43:15;;;;;;;1.02;0.75;;;27.10;72.50;;;;;;5010703;28;20230;-92
2022/07/11 08:45:43;;;;;;;1.15;0.68;;;27.10;71.70;;;;;;5017152;28;20225;-92
2022/07/11 08:48:10;;;;;;;2.97;0.73;;;27.00;71.00;;;;;;5013762;28;20225;-91
2022/07/11 08:50:37;;;;;;;2.17;0.70;;;26.90;71.10;;;;;;5016948;28;21429;-91
2022/07/11 08:53:05;;;;;;;3.33;1.00;;;26.70;69.70;;;;;;5012455;28;20242;-91
2022/07/11 08:55:32;;;;;;;1.80;0.70;;;26.60;70.00;;;;;;5021376;28;20297;-91
2022/07/11 08:58:00;;;;;;;2.28;0.93;;;26.60;70.40;;;;;;5018079;28;20210;-91
2022/07/11 09:00:26;;;;;;;1.60;0.70;;;26.70;70.90;;;;;;5010815;28;20222;-91
2022/07/11 09:02:55;;;;;;;1.67;0.70;;;26.80;70.60;;;;;;5003291;28;20253;-92
2022/07/11 09:05:22;;;;;;;1.40;0.60;;;26.80;69.70;;;;;;5010573;28;20230;-92
2022/07/11 09:07:50;;;;;;;2.13;0.90;;;26.70;69.20;;;;;;5011752;28;20242;-92
2022/07/11 09:10:18;;;;;;;1.27;0.70;;;26.70;69.70;;;;;;5010545;28;20218;-92
2022/07/11 09:13:04;;;;;;;2.33;0.70;;;26.70;70.40;;;;;;5010968;28;20219;-91
2022/07/11 09:15:35;;;;;;;1.33;0.80;;;27.00;70.50;;;;;;5010776;28;20237;-92
2022/07/11 09:18:04;;;;;;;2.00;0.70;;;27.40;69.00;;;;;;5034143;28;20256;-92
2022/07/11 09:26:22;;;;;;;1.92;0.70;;;28.30;66.20;;;;;;5006381;28;20211;-92
2022/07/11 09:29:00;;;;;;;1.02;0.50;;;28.20;65.70;;;;;;5011282;28;20229;-91
2022/07/11 09:31:28;;;;;;;1.90;0.52;;;28.10;63.80;;;;;;5010024;28;20228;-92
2022/07/11 09:34:02;;;;;;;1.85;0.60;;;28.20;64.90;;;;;;5011920;28;20230;-92
2022/07/11 09:36:43;;;;;;;3.75;0.90;;;28.30;63.60;;;;;;5008999;28;20245;-91
2022/07/11 09:39:13;;;;;;;1.88;0.52;;;28.40;63.30;;;;;;5003360;28;20252;-91
2022/07/11 09:41:40;;;;;;;1.50;0.57;;;28.40;62.60;;;;;;5005837;28;20274;-92
2022/07/11 09:44:20;;;;;;;0.93;0.50;;;28.20;63.10;;;;;;5006724;28;20249;-92
2022/07/11 09:46:57;;;;;;;1.42;0.70;;;28.00;61.80;;;;;;5008130;28;20228;-92
2022/07/11 09:49:35;;;;;;;1.92;0.57;;;27.90;62.50;;;;;;5019748;28;20229;-91
2022/07/11 09:52:08;;;;;;;1.23;0.50;;;27.80;60.90;;;;;;5024012;28;20221;-92
2022/07/11 09:54:54;;;;;;;2.58;0.82;;;27.70;60.30;;;;;;5013057;28;20226;-92
2022/07/11 09:57:30;;;;;;;1.95;0.90;;;27.70;62.10;;;;;;5008323;28;20225;-91
2022/07/11 09:59:57;;;;;;;2.17;0.50;;;27.60;61.90;;;;;;5008063;28;20202;-91
2022/07/11 10:02:25;;;;;;;1.20;0.50;;;27.50;60.90;;;;;;5037057;28;20289;-92
2022/07/11 10:04:53;;;;;;;0.85;0.45;;;27.40;61.30;;;;;;5018319;28;20244;-92
2022/07/11 10:07:20;;;;;;;1.23;0.63;;;27.40;60.30;;;;;;5006881;28;20237;-91
2022/07/11 10:09:47;;;;;;;1.17;0.45;;;27.40;60.40;;;;;;5008778;28;20278;-92
2022/07/11 10:12:13;;;;;;;2.30;0.63;;;27.50;60.90;;;;;;5006900;28;20245;-93
2022/07/11 10:14:43;;;;;;;0.85;0.50;;;27.70;60.20;;;;;;5010376;28;20229;-93
2022/07/11 10:17:17;;;;;;;1.63;0.60;;;27.80;59.70;;;;;;5001768;28;20249;-93
2022/07/11 10:19:50;;;;;;;1.65;0.70;;;27.80;59.70;;;;;;5040509;28;20249;-94
2022/07/11 10:22:25;;;;;;;1.65;0.50;;;27.60;59.80;;;;;;5009427;28;20227;-92
2022/07/11 10:24:57;;;;;;;1.45;0.63;;;27.50;59.90;;;;;;5010948;28;20237;-93
2022/07/11 10:27:32;;;;;;;1.13;0.63;;;27.40;59.80;;;;;;5009022;28;20230;-92
2022/07/11 10:30:01;;;;;;;1.70;0.55;;;27.40;59.60;;;;;;5040167;28;20222;-92
2022/07/11 10:32:28;;;;;;;0.93;0.50;;;27.60;60.20;;;;;;5014114;28;20214;-94
2022/07/11 10:35:15;;;;;;;1.23;0.80;;;27.90;60.80;;;;;;5014317;28;20428;-92
2022/07/11 10:37:54;;;;;;;1.73;0.38;;;28.20;61.00;;;;;;5008720;28;20237;-93
2022/07/11 10:40:42;;;;;;;1.15;0.50;;;28.50;60.50;;;;;;5010735;28;20249;-93
2022/07/11 10:43:08;;;;;;;1.00;0.60;;;28.80;58.80;;;;;;5022453;28;20206;-92
2022/07/11 10:45:51;;;;;;;1.13;0.60;;;28.90;58.30;;;;;;5013337;28;20563;-92
2022/07/11 10:48:17;;;;;;;0.63;0.50;;;28.90;57.20;;;;;;5025375;28;20223;-92
2022/07/11 10:50:45;;;;;;;0.40;0.30;;;29.00;56.60;;;;;;5011835;28;20370;-92
2022/07/11 10:53:22;;;;;;;1.58;0.45;;;29.20;56.10;;;;;;5011209;28;20246;-92
2022/07/11 10:56:02;;;;;;;1.98;0.40;;;29.40;54.90;;;;;;5012789;28;20293;-93
2022/07/11 10:58:31;;;;;;;1.38;0.50;;;29.60;54.90;;;;;;5012115;28;20290;-93
2022/07/11 11:01:16;;;;;;;2.08;0.60;;;29.80;55.20;;;;;;5012707;28;20242;-93
2022/07/11 11:03:44;;;;;;;1.52;0.50;;;30.00;54.10;;;;;;5011548;28;20222;-93
2022/07/11 11:06:11;;;;;;;1.90;1.00;;;30.20;53.90;;;;;;5012090;28;20265;-92
2022/07/11 11:08:44;;;;;;;1.65;0.70;;;30.50;54.00;;;;;;5014435;28;20209;-93
2022/07/11 11:11:40;;;;;;;1.17;0.52;;;30.70;52.90;;;;;;5007309;28;20230;-93
2022/07/11 11:14:22;;;;;;;2.25;0.50;;;31.00;53.50;;;;;;5008667;28;20218;-93
2022/07/11 11:16:50;;;;;;;1.42;0.70;;;31.30;53.30;;;;;;5017910;28;20253;-93
2022/07/11 11:19:54;;;;;;;3.72;0.60;;;31.50;52.30;;;;;;5011532;28;20226;-93
2022/07/11 11:22:24;;;;;;;1.98;0.60;;;31.40;52.10;;;;;;5008521;28;20218;-93
2022/07/11 11:24:53;;;;;;;1.98;0.60;;;31.30;51.40;;;;;;5008616;28;20226;-92
2022/07/11 11:27:22;;;;;;;1.55;0.50;;;31.20;50.90;;;;;;5012995;28;20222;-93
2022/07/11 11:29:53;;;;;;;1.20;0.63;;;31.00;50.80;;;;;;5010481;28;20245;-92
2022/07/11 11:32:21;;;;;;;0.93;0.40;;;30.70;51.00;;;;;;5013155;28;20233;-93
2022/07/11 11:34:48;;;;;;;1.65;0.45;;;30.50;51.20;;;;;;5013727;28;20230;-92
2022/07/11 11:37:17;;;;;;;0.98;0.50;;;30.50;51.60;;;;;;5009656;28;20210;-93
2022/07/11 11:39:44;;;;;;;1.05;0.47;;;30.60;51.50;;;;;;5011909;28;20214;-93
2022/07/11 11:42:14;;;;;;;0.90;0.60;;;30.80;52.30;;;;;;5008659;28;20226;-93
2022/07/11 11:44:49;;;;;;;2.05;0.43;;;31.00;50.40;;;;;;5009942;28;20215;-92
2022/07/11 11:47:16;;;;;;;0.68;0.50;;;31.00;50.10;;;;;;5013728;28;20229;-94
2022/07/11 11:49:44;;;;;;;0.63;0.40;;;30.80;50.50;;;;;;5008572;28;20226;-93
2022/07/11 11:52:12;;;;;;;0.70;0.52;;;30.50;50.90;;;;;;5006281;28;20215;-91
2022/07/11 11:54:40;;;;;;;1.48;0.60;;;30.00;51.00;;;;;;5003346;28;20238;-93
2022/07/11 11:57:09;;;;;;;0.95;0.40;;;29.60;51.50;;;;;;5011670;28;20686;-91
2022/07/11 11:59:38;;;;;;;0.85;0.47;;;29.20;51.60;;;;;;5009992;28;20239;-92
2022/07/11 12:02:05;;;;;;;1.55;0.60;;;29.00;52.40;;;;;;5010002;28;20233;-93
2022/07/11 12:04:33;;;;;;;0.80;0.40;;;29.20;53.10;;;;;;5022562;28;20301;-91
2022/07/11 12:07:01;;;;;;;1.25;0.60;;;29.40;53.10;;;;;;5015256;28;20254;-93
2022/07/11 12:14:56;;;;;;;1.05;0.50;;;29.60;51.90;;;;;;5009755;28;20508;-93
2022/07/11 12:17:26;;;;;;;0.85;0.63;;;29.40;51.90;;;;;;5012784;28;20315;-93
2022/07/11 12:19:53;;;;;;;2.70;0.50;;;29.20;53.10;;;;;;5007519;28;20293;-93
2022/07/11 12:22:20;;;;;;;0.63;0.50;;;29.00;52.90;;;;;;5005946;28;20245;-93
2022/07/11 12:24:51;;;;;;;2.03;0.50;;;28.80;52.60;;;;;;5009858;28;21158;-93
2022/07/11 12:27:19;;;;;;;1.05;0.50;;;28.90;52.90;;;;;;5013363;28;20445;-93
2022/07/11 12:29:50;;;;;;;2.70;0.65;;;29.10;53.50;;;;;;5007219;28;20214;-93
2022/07/11 12:32:19;;;;;;;1.20;0.60;;;29.30;53.50;;;;;;5003045;28;20230;-92
2022/07/11 12:34:47;;;;;;;1.75;0.60;;;29.40;53.40;;;;;;5010496;28;20230;-94
2022/07/11 12:37:16;;;;;;;1.70;0.65;;;29.30;53.90;;;;;;5010172;28;20237;-93
2022/07/11 12:39:51;;;;;;;1.70;0.80;;;29.10;52.60;;;;;;5009853;28;20217;-93
2022/07/11 12:42:26;;;;;;;2.42;0.88;;;28.80;52.10;;;;;;5007804;28;20202;-92
2022/07/11 12:44:59;;;;;;;1.40;0.65;;;28.40;52.10;;;;;;5016627;28;20213;-93
2022/07/11 12:47:29;;;;;;;0.90;0.60;;;28.00;52.80;;;;;;5011395;28;20274;-92
2022/07/11 12:49:56;;;;;;;3.85;0.85;;;27.70;53.20;;;;;;5010129;28;20229;-93
2022/07/11 12:52:23;;;;;;;0.90;0.50;;;27.60;53.80;;;;;;5011824;28;20218;-93
2022/07/11 12:54:52;;;;;;;3.13;0.60;;;27.50;53.40;;;;;;5012594;28;20225;-93
2022/07/11 12:57:22;;;;;;;2.33;0.70;;;27.50;53.60;;;;;;5010402;28;20214;-93
2022/07/11 12:59:49;;;;;;;1.45;0.60;;;27.40;53.80;;;;;;5006859;28;20222;-92
2022/07/11 13:02:16;;;;;;;1.42;0.68;;;27.40;54.20;;;;;;5029711;28;20241;-92
2022/07/11 13:04:48;;;;;;;1.25;0.50;;;27.30;54.40;;;;;;5003710;28;20400;-92
2022/07/11 13:10:23;;;;;;;1.98;0.73;;;27.00;54.80;;;;;;5004981;28;20217;-92
2022/07/11 13:12:52;;;;;;;1.85;1.10;;;26.90;55.20;;;;;;5010241;28;20214;-92
2022/07/11 13:15:20;;;;;;;1.02;0.85;;;26.80;55.40;;;;;;5009335;28;20395;-92
2022/07/11 13:17:50;;;;;;;1.65;0.70;;;26.60;55.20;;;;;;5008872;28;20244;-93